• Join FlightAware (Why Join?)
  • Login
  • US Flag 
05:05AM EDT


 

Airport Tracker/Info


-or-


 

Live Flight TrackerFlight Track Log ✈ NKS434 ✈ 20-Oct-2013 ✈ MNMG / MGA - KFLL

Flight Track Log - Related Links

Times and Time Zones

All times are in EDT time to prevent confusion due to time zone crossing. See the NKS434 flight status page for this flight to view local times or setup timezone preferences in your user account.

Time Position Orientation Groundspeed Altitude Reporting Facility
EDT Latitude Longitude Course Direction KTS MPH feet Rate Location/Type
04:38AM 22.8868 -81.6347 21° North  Level Estimated
04:39AM 22.9875 -81.5891 23° Northeast  Level Estimated
04:39AM 22.9950 -81.5290 23° Northeast 443 510 38,000  Level FlightAware
04:39AM 23.0690 -81.5030 18° North 444 511 38,000  Level FlightAware
04:40AM 23.1350 -81.4790 18° North 444 511 38,000  Level FlightAware
04:40AM 23.2100 -81.4510 19° North 456 525 38,000  Level FlightAware
04:41AM 23.2780 -81.4270 18° North 454 522 38,000  Level FlightAware
04:42AM 23.3400 -81.4040 19° North 455 524 38,000  Level FlightAware
04:42AM 23.4130 -81.3770 19° North 455 524 38,000  Level FlightAware
04:43AM 23.4950 -81.3480 18° North 440 506 38,000  Level FlightAware
04:43AM 23.5570 -81.3250 19° North 440 506 38,000  Level FlightAware
04:44AM 23.6270 -81.2990 19° North 442 509 38,000  Level FlightAware
04:45AM 23.6970 -81.2730 19° North 454 522 38,000  Level FlightAware
04:45AM 23.7770 -81.2440 18° North 454 522 38,000 -360 Level FlightAware
04:46AM 23.8460 -81.2190 18° North 444 511 37,600 -960 Descending FlightAware
04:46AM 23.9250 -81.1900 19° North 457 526 36,800 -1,320 Descending FlightAware
04:47AM 23.9850 -81.1670 19° North 458 527 36,100 -1,320 Descending FlightAware
04:48AM 24.0580 -81.1410 18° North 456 525 35,400 -1,200 Descending FlightAware
04:48AM 24.1300 -81.1140 19° North 463 533 34,700 -1,380 Descending FlightAware
04:49AM 24.2020 -81.0880 18° North 460 529 33,800 -1,860 Descending FlightAware
04:49AM 24.2840 -81.0570 19° North 471 542 32,400 -2,160 Descending FlightAware
04:50AM 24.3470 -81.0340 18° North 475 547 31,300 -2,220 Descending FlightAware
04:50AM 24.4200 -81.0070 19° North 474 545 30,000 -2,400 Descending FlightAware
04:51AM 24.5050 -80.9750 19° North 476 548 28,400 -2,400 Descending FlightAware
04:52AM 24.5700 -80.9510 19° North 489 563 27,200 -2,400 Descending FlightAware
04:52AM 24.6460 -80.9230 19° North 493 567 25,800 -2,520 Descending FlightAware
04:53AM 24.7340 -80.8900 19° North 480 552 24,100 -2,820 Descending FlightAware
04:53AM 24.8060 -80.8630 19° North 478 550 22,300 -3,180 Descending FlightAware
04:54AM 24.8780 -80.8360 19° North 462 532 20,400 -3,420 Descending FlightAware
04:55AM 24.9430 -80.8120 19° North 463 533 18,700 -2,940 Descending FlightAware
04:55AM 25.0220 -80.7820 19° North 444 511 17,000 -2,520 Descending FlightAware
04:56AM 25.0790 -80.7610 18° North 423 487 15,800 -2,220 Descending FlightAware
04:56AM 25.1450 -80.7360 19° North 427 491 14,600 -2,100 Descending FlightAware
04:57AM 25.2190 -80.7080 19° North 412 474 13,200 -2,100 Descending FlightAware
04:57AM 25.2740 -80.6870 19° North 412 474 12,200 -1,800 Descending FlightAware
04:58AM 25.3400 -80.6620 19° North 412 474 11,100 -960 Descending FlightAware
04:59AM 25.4070 -80.6370 19° North 388 447 11,000 -480 Descending FlightAware
04:59AM 25.4590 -80.6170 19° North 343 395 10,600 -960 Descending FlightAware
05:00AM 25.5100 -80.5980 19° North 311 358 10,000 -1,140 Descending FlightAware
05:00AM 25.5370 -80.5880 18° North 304 350 9,600 -1,500 Descending FlightAware
05:01AM 25.5630 -80.5780 19° North 304 350 9,000 -1,440 Descending FlightAware
05:01AM 25.5960 -80.5650 20° North 288 331 8,500 -1,380 Descending FlightAware
05:01AM 25.6220 -80.5550 19° North 294 338 8,000 -1,620 Descending FlightAware
05:02AM 25.6470 -80.5460 18° North 292 336 7,500 -1,440 Descending FlightAware
05:02AM 25.6730 -80.5360 19° North 289 333 7,000 -1,440 Descending FlightAware
05:02AM 25.7050 -80.5240 19° North 278 320 6,400 -1,740 Descending FlightAware
05:03AM 25.7290 -80.5140 21° North 288 331 5,800 -1,680 Descending FlightAware
05:03AM 25.7550 -80.5050 17° North 286 329 5,300 -1,200 Descending FlightAware
05:03AM 25.7740 -80.4970 21° North 273 314 5,100 -540 Descending FlightAware
05:04AM 25.7990 -80.4880 18° North 287 330 5,000 -180 Descending FlightAware
05:04AM 25.8210 -80.4800 18° North 286 329 5,000  Level FlightAware
05:04AM 25.8480 -80.4690 20° North 278 320 5,000  Level FlightAware
05:05AM 25.8810 -80.4570 18° North 273 314 5,000 -960 Level FlightAware
05:05AM 25.9050 -80.4480 19° North 270 311 4,300 -2,280 Descending FlightAware
05:05AM 25.9280 -80.4390 19° North 273 314 3,500 -2,400 Descending FlightAware
05:06AM 25.9460 -80.4280 29° Northeast 277 319 2,900 -2,400 Descending FlightAware
05:06AM 25.9510 -80.4230 42° Northeast 270 311 2,700 -1,800 Descending FlightAware
05:06AM 25.9720 -80.3960 49° Northeast 271 312 2,000 -1,260 Descending FlightAware
05:06AM 25.9880 -80.3770 47° Northeast 253 291 1,800 -300 Descending FlightAware
05:07AM 26.0030 -80.3580 49° Northeast 237 273 1,800  Level FlightAware
05:07AM 26.0180 -80.3400 47° Northeast 222 255 1,800  Level FlightAware
05:07AM 26.0310 -80.3230 50° Northeast 201 231 1,800 120 Level FlightAware
05:08AM 26.0400 -80.3120 48° Northeast 196 226 1,900  Climbing FlightAware
05:08AM 26.0530 -80.2970 46° Northeast 196 226 1,800 -180 Descending FlightAware
05:08AM 26.0650 -80.2820 48° Northeast 196 226 1,800 -180 Level FlightAware
05:09AM 26.0760 -80.2620 59° Northeast 182 209 1,700 -420 Descending FlightAware
05:09AM 26.0770 -80.2580 74° East 177 204 1,600 -840 Descending FlightAware
05:09AM 26.0770 -80.2360 90° East 148 170 1,300 -840 Descending FlightAware
05:10AM 26.0770 -80.2220 90° East 143 165 1,000 -840 Descending FlightAware
05:10AM 26.0770 -80.2040 90° East 139 160 700 -660 Descending FlightAware
05:10AM 26.0770 -80.1930 90° East 135 155 500 -720 Descending FlightAware
05:11AM 26.0770 -80.1740 90° East 131 151 200 -840 Descending FlightAware
05:18AM 26.0667 -80.1500 50° Northeast  Level FlightAware Approximate
05:19AM 26.0726 -80.1527 50° Northeast  Level Estimated